Aérodrome :
LOGIN :

S'inscrire | Disclaimer

   EN    FR    IT 

 










Légende :    VFR   VFR Marginal   IFR   IFR Intensif   IFR Très Intensif
Visi : 
Plafond : 
>= 8 km
>= 3000ft
5 à 8 km
1000 à 3000 ft
1500m à 5 km
500 à 1000 ft
800 à 1500m
200 à 500 ft
< 800m
< 200 ft
Symboles :   Orages  Brouillard  Fortes neiges  Fortes précipitations  Vent > 20 kt
SIGMETs :   Divers  Orages  Givrage  Turbulence  Onde Orograph.  Cendres Volcan.







- Altitude de l'aérodrome : 659 ft
- Code IATA : LGG


EBLG - Liège

DERNIER METAR :
  • 202020Z 35003KT 0700 R22L/1700U R22R/P2000N R04R/1700D -SN BKN001 BKN002 00/00 Q1001 TEMPO BKN002

METARs EXPIRÉS :
  • 201950Z 34004KT 1000 R22L/P2000N R22R/P2000N R04R/P2000N -SNRA BKN001 BKN002 00/00 Q1000 TEMPO BKN002
  • 201920Z 34004KT 2100 -SN SCT001 BKN003 01/01 Q1000 TEMPO BKN002
  • 201850Z VRB02KT 3000 -RA SCT002 BKN008 01/01 Q0999 TEMPO 5000 RASN BKN005
  • 201820Z 33003KT 6000 -RA BKN010 01/01 Q0999 TEMPO 5000 RASN BKN005
  • 201750Z VRB02KT 6000 -RADZ BKN012 01/01 Q0999 TEMPO 5000 RASN BKN005

TAF AMD TAF EBLG
Valide du 20 à 20h jusqu'au 22 à 00h UTC


202020Z 2020/2124 VRB03KT 7000 SCT004 BKN006
TEMPO 2020/2103 2000 SNRA RADZ BKN004
PROB40
TEMPO 2020/2108 0800 -SN FG BKN001
BECMG 2102/2104 SCT014
BECMG 2118/2120 17010KT
TEMPO 2118/2124 BKN012
PROB40
TEMPO 2120/2124 3800 SNRA RADZ BKN007
Pas de NOTAMs connus pour ce terrain.
1 SIGMET publié pour la FIR Brussels (EBBU) :
 
Turbulence forte
EBBU SIGMET 05 VALID 201800/202100 EBBR
EBBU BRUSSELS FIR SEV TURB FCST NE OF LINE N5130 E00230 - N4930 E00615 FL180/310 MOV NE NC=



MET'MAP, la Météo Aéronautique d'un coup d'oeil ! - Copyright ORBIFLY Décembre 2007 - Disclaimer

ORBIFLY MET'MAP TEAM :

Programmation & Développement : Alexandra Zaïnal
Conception & Développement : Baudouin d'Aumeries
Co-Programmation & Développement : Marc-Olivier Méhu
Soutien technique & logistique : Manuel Goepfert

Contact : metmap@orbifly.com




SOURCES & CREDITS :

   NOAA